Time;durP1;ratioP1;P1;durP2;ratioP2;P2;SDS_P1;SDS_P2;PMS_P1;PMS_P2;Temp;Humidity;BMP_temperature;BMP_pressure;BME280_temperature;BME280_humidity;BME280_pressure;Samples;Min_cycle;Max_cycle;Signal;HPM_P1;HPM_P2
2022/01/01 00:01:59;;;;;;;9.65;4.65;;;;;;;;;;6218301;28;20073;-80
2022/01/01 00:05:03;;;;;;;8.70;4.32;;;;;;;;;;6218640;28;20048;-78
2022/01/01 00:08:06;;;;;;;6.43;4.13;;;;;;;;;;6222607;28;20088;-78
2022/01/01 00:11:07;;;;;;;9.00;4.15;;;;;;;;;;6220844;28;20114;-79
2022/01/01 00:14:24;;;;;;;8.00;4.35;;;;;;;;;;6221523;28;20049;-80
2022/01/01 00:17:26;;;;;;;9.02;4.53;;;;;;;;;;6213971;28;20053;-81
2022/01/01 00:20:28;;;;;;;8.88;4.53;;;;;;;;;;6222795;28;20041;-80
2022/01/01 00:23:30;;;;;;;6.88;4.30;;;;;;;;;;6222860;28;20052;-80
2022/01/01 00:26:31;;;;;;;7.30;4.25;;;;;;;;;;6217599;28;20038;-80
2022/01/01 00:29:33;;;;;;;8.07;3.85;;;;;;;;;;6220866;28;20056;-79
2022/01/01 00:32:36;;;;;;;7.57;4.00;;;;;;;;;;6213784;28;20050;-79
2022/01/01 00:35:40;;;;;;;10.35;4.70;;;;;;;;;;6219815;28;20033;-80
2022/01/01 00:38:42;;;;;;;11.88;7.13;;;;;;;;;;6221981;28;20418;-80
2022/01/01 00:41:43;;;;;;;9.02;4.05;;;;;;;;;;6234777;28;20038;-80
2022/01/01 00:44:45;;;;;;;7.38;4.00;;;;;;;;;;6218615;28;20053;-80
2022/01/01 00:47:46;;;;;;;9.15;4.43;;;;;;;;;;6216881;28;20052;-78
2022/01/01 00:50:48;;;;;;;7.25;3.80;;;;;;;;;;6221093;28;20748;-80
2022/01/01 00:53:50;;;;;;;7.93;3.83;;;;;;;;;;6222303;28;20392;-80
2022/01/01 00:56:51;;;;;;;10.95;3.92;;;;;;;;;;6210932;28;20052;-80
2022/01/01 00:59:53;;;;;;;9.23;3.78;;;;;;;;;;6199352;28;20050;-81
2022/01/01 01:02:54;;;;;;;6.28;3.80;;;;;;;;;;6221327;28;20052;-79
2022/01/01 01:05:58;;;;;;;8.98;4.70;;;;;;;;;;6222019;28;20064;-80
2022/01/01 01:09:00;;;;;;;5.78;3.63;;;;;;;;;;6219666;28;20042;-80
2022/01/01 01:12:02;;;;;;;8.23;3.75;;;;;;;;;;6219244;28;20055;-78
2022/01/01 01:15:05;;;;;;;8.77;4.20;;;;;;;;;;6214002;28;20495;-81
2022/01/01 01:18:07;;;;;;;10.40;4.38;;;;;;;;;;6218728;28;20042;-79
2022/01/01 01:21:08;;;;;;;8.18;5.68;;;;;;;;;;6218855;28;20046;-80
2022/01/01 01:24:15;;;;;;;10.20;4.28;;;;;;;;;;6216631;28;20050;-79
2022/01/01 01:27:16;;;;;;;9.48;4.57;;;;;;;;;;6220540;28;20117;-78
2022/01/01 01:30:18;;;;;;;11.68;4.70;;;;;;;;;;6218436;28;20152;-79
2022/01/01 01:33:20;;;;;;;8.63;5.40;;;;;;;;;;6225970;28;20055;-78
2022/01/01 01:36:21;;;;;;;9.52;5.13;;;;;;;;;;6221948;28;20410;-81
2022/01/01 01:39:23;;;;;;;9.57;4.70;;;;;;;;;;6219684;28;20056;-78
2022/01/01 01:42:27;;;;;;;10.63;4.43;;;;;;;;;;6244100;28;20538;-81
2022/01/01 01:45:28;;;;;;;10.82;5.38;;;;;;;;;;6235399;28;20046;-81
2022/01/01 01:48:33;;;;;;;10.65;5.38;;;;;;;;;;6233963;28;20053;-80
2022/01/01 01:51:35;;;;;;;10.63;5.63;;;;;;;;;;6224930;28;20046;-80
2022/01/01 01:54:36;;;;;;;14.60;6.57;;;;;;;;;;6226733;28;20033;-80
2022/01/01 01:57:40;;;;;;;11.85;6.80;;;;;;;;;;6226023;28;20053;-79
2022/01/01 02:03:59;;;;;;;11.05;5.93;;;;;;;;;;6199492;28;20338;-80
2022/01/01 02:07:02;;;;;;;11.30;6.60;;;;;;;;;;6201561;28;20043;-80
2022/01/01 02:10:04;;;;;;;14.20;6.40;;;;;;;;;;6210429;28;20046;-81
2022/01/01 02:13:12;;;;;;;9.57;5.83;;;;;;;;;;6228870;28;20054;-81
2022/01/01 02:19:26;;;;;;;11.82;6.72;;;;;;;;;;6236634;28;20196;-79
2022/01/01 02:22:37;;;;;;;11.48;6.25;;;;;;;;;;6221454;28;20050;-80
2022/01/01 02:25:39;;;;;;;11.18;6.72;;;;;;;;;;6225164;28;20048;-80
2022/01/01 02:28:47;;;;;;;14.38;7.57;;;;;;;;;;6225845;28;20091;-80
2022/01/01 02:31:50;;;;;;;13.57;6.85;;;;;;;;;;6222210;28;20511;-79
2022/01/01 02:34:52;;;;;;;10.23;6.82;;;;;;;;;;6242680;28;20071;-81
2022/01/01 02:37:53;;;;;;;11.88;7.68;;;;;;;;;;6237133;28;20404;-79
2022/01/01 02:40:55;;;;;;;15.07;7.30;;;;;;;;;;6194619;28;20258;-80
2022/01/01 02:43:57;;;;;;;13.80;7.43;;;;;;;;;;6220066;28;20042;-79
2022/01/01 02:46:58;;;;;;;15.80;7.60;;;;;;;;;;6197972;28;20049;-78
2022/01/01 02:50:00;;;;;;;15.05;7.55;;;;;;;;;;6216859;28;20050;-80
2022/01/01 02:53:02;;;;;;;11.23;6.65;;;;;;;;;;6199754;28;20131;-80
2022/01/01 02:56:04;;;;;;;16.35;7.18;;;;;;;;;;6216273;28;20038;-79
2022/01/01 02:59:06;;;;;;;14.45;7.45;;;;;;;;;;6243663;28;20056;-81
2022/01/01 03:02:07;;;;;;;15.05;7.15;;;;;;;;;;6227905;28;20052;-80
2022/01/01 03:05:09;;;;;;;14.07;7.85;;;;;;;;;;6245320;28;20045;-78
2022/01/01 03:08:10;;;;;;;14.95;7.10;;;;;;;;;;6246438;28;20063;-80
2022/01/01 03:11:12;;;;;;;14.35;7.30;;;;;;;;;;6228880;28;20144;-79
2022/01/01 03:14:17;;;;;;;11.35;6.68;;;;;;;;;;6219988;28;20046;-81
2022/01/01 03:17:18;;;;;;;12.07;6.47;;;;;;;;;;6220348;28;20084;-80
2022/01/01 03:20:20;;;;;;;13.50;6.85;;;;;;;;;;6225852;28;20149;-80
2022/01/01 03:23:22;;;;;;;14.30;7.28;;;;;;;;;;6218128;28;20100;-81
2022/01/01 03:26:23;;;;;;;11.02;6.47;;;;;;;;;;6220622;28;20048;-79
2022/01/01 03:29:28;;;;;;;14.32;7.03;;;;;;;;;;6222002;28;20049;-80
2022/01/01 03:32:29;;;;;;;13.43;6.97;;;;;;;;;;6227070;28;20431;-78
2022/01/01 03:35:31;;;;;;;15.07;6.88;;;;;;;;;;6227647;28;20545;-79
2022/01/01 03:38:33;;;;;;;13.20;6.95;;;;;;;;;;6236443;28;20044;-80
2022/01/01 03:41:34;;;;;;;12.88;6.93;;;;;;;;;;6218933;28;20521;-79
2022/01/01 03:44:36;;;;;;;14.23;7.47;;;;;;;;;;6232596;28;20099;-77
2022/01/01 03:47:38;;;;;;;17.50;7.32;;;;;;;;;;6214331;28;20518;-79
2022/01/01 03:50:39;;;;;;;15.82;7.60;;;;;;;;;;6221436;28;20101;-78
2022/01/01 03:53:41;;;;;;;13.18;7.75;;;;;;;;;;6217806;28;20418;-79
2022/01/01 03:56:42;;;;;;;13.70;7.82;;;;;;;;;;6213136;28;20522;-81
2022/01/01 03:59:44;;;;;;;14.35;7.80;;;;;;;;;;6217612;28;20058;-81
2022/01/01 04:02:46;;;;;;;15.55;7.38;;;;;;;;;;6213610;28;20447;-78
2022/01/01 04:05:47;;;;;;;12.95;7.07;;;;;;;;;;6203626;28;20593;-78
2022/01/01 04:08:49;;;;;;;13.13;6.68;;;;;;;;;;6219179;28;20064;-78
2022/01/01 04:11:53;;;;;;;12.55;7.45;;;;;;;;;;6216775;28;20048;-80
2022/01/01 04:14:57;;;;;;;14.02;7.43;;;;;;;;;;6217857;28;20046;-81
2022/01/01 04:18:08;;;;;;;14.73;7.10;;;;;;;;;;6217168;28;20136;-79
2022/01/01 04:21:11;;;;;;;15.40;7.63;;;;;;;;;;6219531;28;20049;-78
2022/01/01 04:24:12;;;;;;;13.48;6.70;;;;;;;;;;6219856;28;20048;-80
2022/01/01 04:27:14;;;;;;;10.88;6.32;;;;;;;;;;6235114;28;20414;-80
2022/01/01 04:30:16;;;;;;;16.35;6.93;;;;;;;;;;6218236;28;20044;-81
2022/01/01 04:33:17;;;;;;;14.75;6.40;;;;;;;;;;6221000;28;20048;-81
2022/01/01 04:36:20;;;;;;;11.25;6.28;;;;;;;;;;6225183;28;20050;-79
2022/01/01 04:39:22;;;;;;;;;;;;;;;;;;6217532;28;20042;-79
2022/01/01 04:42:24;;;;;;;12.00;6.32;;;;;;;;;;6194672;28;19997;-79
2022/01/01 04:45:25;;;;;;;13.85;6.70;;;;;;;;;;6214790;28;20042;-77
2022/01/01 04:48:28;;;;;;;10.75;5.90;;;;;;;;;;6234576;28;20042;-80
2022/01/01 04:51:30;;;;;;;11.25;6.20;;;;;;;;;;6220041;28;20046;-79
2022/01/01 04:54:33;;;;;;;15.45;6.60;;;;;;;;;;6201422;28;20176;-80
2022/01/01 04:57:35;;;;;;;12.18;6.70;;;;;;;;;;6219799;28;20113;-80
2022/01/01 05:00:37;;;;;;;11.32;5.47;;;;;;;;;;6210499;28;20077;-80
2022/01/01 05:03:38;;;;;;;13.63;6.07;;;;;;;;;;6195473;28;20176;-80
2022/01/01 05:06:41;;;;;;;14.25;5.68;;;;;;;;;;6195901;28;20196;-80
2022/01/01 05:09:42;;;;;;;11.25;5.85;;;;;;;;;;6229189;28;20038;-80
2022/01/01 05:12:44;;;;;;;10.85;5.82;;;;;;;;;;6220080;28;20049;-78
2022/01/01 05:15:48;;;;;;;13.68;6.25;;;;;;;;;;6211843;28;20041;-80
2022/01/01 05:18:49;;;;;;;10.98;5.75;;;;;;;;;;6217400;28;20044;-80
2022/01/01 05:21:55;;;;;;;11.25;6.05;;;;;;;;;;6217924;28;20045;-80
2022/01/01 05:24:59;;;;;;;11.35;6.53;;;;;;;;;;6217110;28;20408;-80
2022/01/01 05:28:01;;;;;;;9.27;6.10;;;;;;;;;;6213931;28;20042;-78
2022/01/01 05:31:04;;;;;;;10.02;5.65;;;;;;;;;;6215828;28;20073;-79
2022/01/01 05:34:06;;;;;;;11.38;5.45;;;;;;;;;;6214207;28;20050;-78
2022/01/01 05:37:07;;;;;;;7.82;5.15;;;;;;;;;;6212878;28;20050;-78
2022/01/01 05:40:09;;;;;;;11.18;5.22;;;;;;;;;;6228307;28;20056;-81
2022/01/01 05:43:13;;;;;;;12.30;5.22;;;;;;;;;;6215428;28;20117;-79
2022/01/01 05:46:15;;;;;;;11.85;6.13;;;;;;;;;;6210631;28;20038;-79
2022/01/01 05:49:17;;;;;;;9.23;5.13;;;;;;;;;;6215557;28;20042;-79
2022/01/01 05:52:19;;;;;;;9.57;5.85;;;;;;;;;;6228484;28;20069;-79
2022/01/01 05:55:20;;;;;;;9.57;5.78;;;;;;;;;;6216618;28;20096;-80
2022/01/01 05:58:22;;;;;;;11.55;6.18;;;;;;;;;;6198615;28;20042;-79
2022/01/01 06:01:23;;;;;;;10.40;5.43;;;;;;;;;;6213679;28;20053;-80
2022/01/01 06:04:25;;;;;;;11.98;5.85;;;;;;;;;;6208466;28;20055;-80
2022/01/01 06:07:28;;;;;;;11.68;5.97;;;;;;;;;;6214908;28;20049;-81
2022/01/01 06:10:29;;;;;;;11.70;5.95;;;;;;;;;;6207044;28;20038;-81
2022/01/01 06:13:31;;;;;;;14.80;5.90;;;;;;;;;;6211165;28;20044;-80
2022/01/01 06:16:32;;;;;;;13.18;6.05;;;;;;;;;;6214033;28;20041;-80
2022/01/01 06:19:34;;;;;;;12.20;5.90;;;;;;;;;;6215956;28;20053;-80
2022/01/01 06:22:36;;;;;;;12.27;5.63;;;;;;;;;;6210361;28;20046;-77
2022/01/01 06:25:38;;;;;;;12.95;5.80;;;;;;;;;;6217271;28;20547;-79
2022/01/01 06:28:39;;;;;;;10.60;6.00;;;;;;;;;;6211369;28;20042;-78
2022/01/01 06:31:41;;;;;;;9.70;5.57;;;;;;;;;;6213592;28;20093;-80
2022/01/01 06:34:42;;;;;;;12.73;6.28;;;;;;;;;;6215067;28;20041;-81
2022/01/01 06:37:44;;;;;;;14.93;7.00;;;;;;;;;;6212868;28;20046;-81
2022/01/01 06:40:46;;;;;;;11.60;6.20;;;;;;;;;;6215628;28;20038;-81
2022/01/01 06:43:47;;;;;;;12.15;6.50;;;;;;;;;;6200476;28;20046;-78
2022/01/01 06:46:49;;;;;;;11.07;6.60;;;;;;;;;;6226929;28;20096;-79
2022/01/01 06:49:50;;;;;;;14.90;7.50;;;;;;;;;;6221117;28;20502;-79
2022/01/01 06:52:52;;;;;;;15.48;7.45;;;;;;;;;;6221045;28;20070;-78
2022/01/01 06:55:54;;;;;;;13.18;6.80;;;;;;;;;;6220191;28;20041;-79
2022/01/01 06:58:55;;;;;;;12.18;5.57;;;;;;;;;;6236791;28;20146;-78
2022/01/01 07:01:57;;;;;;;12.65;7.10;;;;;;;;;;6228312;28;20042;-79
2022/01/01 07:04:59;;;;;;;12.93;6.40;;;;;;;;;;6223024;28;20042;-79
2022/01/01 07:08:01;;;;;;;11.98;6.10;;;;;;;;;;6220455;28;20126;-78
2022/01/01 07:11:02;;;;;;;14.20;7.03;;;;;;;;;;6221303;28;20184;-79
2022/01/01 07:14:04;;;;;;;12.35;6.82;;;;;;;;;;6222457;28;20037;-80
2022/01/01 07:17:05;;;;;;;10.60;6.28;;;;;;;;;;6210902;28;20048;-79
2022/01/01 07:20:08;;;;;;;11.05;5.80;;;;;;;;;;6220665;28;20097;-78
2022/01/01 07:23:10;;;;;;;11.55;5.82;;;;;;;;;;6220085;28;20165;-79
2022/01/01 07:26:12;;;;;;;10.70;5.85;;;;;;;;;;6219407;28;20069;-79
2022/01/01 07:29:13;;;;;;;10.55;5.28;;;;;;;;;;6217932;28;20124;-78
2022/01/01 07:32:15;;;;;;;13.05;6.13;;;;;;;;;;6212205;28;20127;-79
2022/01/01 07:35:18;;;;;;;13.38;5.55;;;;;;;;;;6214823;28;20097;-80
2022/01/01 07:38:21;;;;;;;;;;;;;;;;;;6248704;28;20080;-79
2022/01/01 07:41:22;;;;;;;11.10;6.03;;;;;;;;;;6237225;28;20008;-79
2022/01/01 07:44:24;;;;;;;12.95;5.80;;;;;;;;;;6214759;28;20738;-79
2022/01/01 07:47:27;;;;;;;13.33;5.50;;;;;;;;;;6215259;28;20042;-79
2022/01/01 07:50:28;;;;;;;15.15;5.35;;;;;;;;;;6223201;28;20161;-79
2022/01/01 07:53:30;;;;;;;11.05;5.93;;;;;;;;;;6207308;28;20059;-79
2022/01/01 07:56:32;;;;;;;13.13;6.45;;;;;;;;;;6185850;28;20118;-78
2022/01/01 07:59:39;;;;;;;10.90;4.95;;;;;;;;;;6191461;28;20043;-78
2022/01/01 08:02:42;;;;;;;10.05;5.60;;;;;;;;;;6204265;28;20161;-78
2022/01/01 08:05:43;;;;;;;10.35;5.55;;;;;;;;;;6188351;28;20098;-79
2022/01/01 08:08:45;;;;;;;10.45;5.88;;;;;;;;;;6191175;28;20114;-80
2022/01/01 08:11:47;;;;;;;8.95;5.35;;;;;;;;;;6216368;28;20046;-81
2022/01/01 08:14:48;;;;;;;11.88;6.20;;;;;;;;;;6221337;28;20141;-79
2022/01/01 08:17:50;;;;;;;12.45;6.13;;;;;;;;;;6224058;28;20042;-80
2022/01/01 08:20:51;;;;;;;9.10;4.93;;;;;;;;;;6225344;28;20073;-80
2022/01/01 08:23:53;;;;;;;9.85;5.63;;;;;;;;;;6216985;28;20069;-80
2022/01/01 08:26:55;;;;;;;12.07;5.28;;;;;;;;;;6228182;28;20132;-81
2022/01/01 08:29:57;;;;;;;12.20;5.80;;;;;;;;;;6236660;28;20485;-82
2022/01/01 08:33:02;;;;;;;10.98;5.93;;;;;;;;;;6224259;28;20120;-81
2022/01/01 08:36:04;;;;;;;12.32;5.40;;;;;;;;;;6226976;28;20120;-81
2022/01/01 08:39:07;;;;;;;9.32;5.53;;;;;;;;;;6223991;28;20109;-82
2022/01/01 08:42:09;;;;;;;11.15;5.15;;;;;;;;;;6221941;28;20165;-81
2022/01/01 08:45:11;;;;;;;10.18;5.57;;;;;;;;;;6221469;28;20140;-83
2022/01/01 08:48:13;;;;;;;11.85;6.82;;;;;;;;;;6205924;28;20165;-82
2022/01/01 08:51:19;;;;;;;10.82;5.97;;;;;;;;;;6218785;28;20049;-82
2022/01/01 08:54:21;;;;;;;12.00;5.70;;;;;;;;;;6228219;28;20092;-82
2022/01/01 08:57:23;;;;;;;14.07;5.88;;;;;;;;;;6214370;28;20049;-83
2022/01/01 09:00:25;;;;;;;13.52;5.90;;;;;;;;;;6226990;28;20129;-82
2022/01/01 09:03:27;;;;;;;9.50;5.38;;;;;;;;;;6216226;28;20046;-82
2022/01/01 09:06:29;;;;;;;10.75;5.47;;;;;;;;;;6208018;28;20400;-81
2022/01/01 09:09:30;;;;;;;10.93;5.35;;;;;;;;;;6217921;28;20125;-82
2022/01/01 09:12:32;;;;;;;13.95;5.38;;;;;;;;;;6245404;28;20175;-81
2022/01/01 09:15:34;;;;;;;10.13;5.30;;;;;;;;;;6210508;28;20034;-81
2022/01/01 09:18:35;;;;;;;12.85;5.70;;;;;;;;;;6222215;28;20038;-81
2022/01/01 09:21:37;;;;;;;8.05;4.60;;;;;;;;;;6221936;28;20114;-81
2022/01/01 09:24:38;;;;;;;9.75;4.80;;;;;;;;;;6210014;28;20105;-81
2022/01/01 09:27:40;;;;;;;9.30;4.50;;;;;;;;;;6220087;28;20098;-82
2022/01/01 09:30:42;;;;;;;13.43;5.10;;;;;;;;;;6212723;28;20066;-81
2022/01/01 09:33:43;;;;;;;8.98;4.70;;;;;;;;;;6221975;28;20102;-81
2022/01/01 09:36:47;;;;;;;10.15;5.03;;;;;;;;;;6222058;28;20128;-82
2022/01/01 09:39:49;;;;;;;9.68;5.20;;;;;;;;;;6216575;28;20141;-81
2022/01/01 09:42:52;;;;;;;9.27;4.80;;;;;;;;;;6221070;28;20201;-81
2022/01/01 09:45:55;;;;;;;7.82;4.72;;;;;;;;;;6212333;28;20115;-82
2022/01/01 09:48:57;;;;;;;10.18;5.30;;;;;;;;;;6222199;28;20046;-80
2022/01/01 09:51:59;;;;;;;8.23;4.85;;;;;;;;;;6223561;28;20077;-81
2022/01/01 09:55:00;;;;;;;8.80;4.60;;;;;;;;;;6220731;28;20069;-81
2022/01/01 09:58:02;;;;;;;11.52;5.78;;;;;;;;;;6221148;28;20121;-80
2022/01/01 10:01:06;;;;;;;11.70;4.65;;;;;;;;;;6210336;28;20118;-80
2022/01/01 10:04:15;;;;;;;9.20;4.45;;;;;;;;;;6221041;28;20056;-79
2022/01/01 10:07:17;;;;;;;7.75;4.38;;;;;;;;;;6220863;28;20065;-80
2022/01/01 10:10:22;;;;;;;7.80;4.53;;;;;;;;;;6215921;28;20101;-82
2022/01/01 10:13:29;;;;;;;7.88;4.15;;;;;;;;;;6233069;28;20042;-84
2022/01/01 10:16:31;;;;;;;10.07;4.10;;;;;;;;;;6216034;28;20053;-83
2022/01/01 10:19:32;;;;;;;8.60;4.47;;;;;;;;;;6223975;28;20125;-82
2022/01/01 10:22:35;;;;;;;7.72;3.88;;;;;;;;;;6239909;28;20057;-81
2022/01/01 10:29:03;;;;;;;7.55;3.95;;;;;;;;;;6225826;28;20133;-82
2022/01/01 10:32:10;;;;;;;7.50;3.88;;;;;;;;;;6215401;28;20547;-81
2022/01/01 10:35:15;;;;;;;6.28;3.90;;;;;;;;;;6225715;28;20050;-81
2022/01/01 10:38:26;;;;;;;9.98;3.47;;;;;;;;;;6225044;28;20105;-80
2022/01/01 10:41:27;;;;;;;7.30;3.78;;;;;;;;;;6237583;28;20518;-81
2022/01/01 10:44:36;;;;;;;4.75;3.15;;;;;;;;;;6240409;28;20045;-80
2022/01/01 10:47:38;;;;;;;6.75;3.25;;;;;;;;;;6225351;28;20068;-80
2022/01/01 10:50:42;;;;;;;4.13;2.70;;;;;;;;;;6227253;28;20069;-81
2022/01/01 10:53:43;;;;;;;5.85;2.60;;;;;;;;;;6231549;28;20041;-81
2022/01/01 10:56:45;;;;;;;5.75;2.53;;;;;;;;;;6223007;28;20109;-81
2022/01/01 10:59:48;;;;;;;9.07;6.95;;;;;;;;;;6221215;28;20161;-82
2022/01/01 11:02:55;;;;;;;4.90;2.42;;;;;;;;;;6220105;28;20132;-81
2022/01/01 11:06:12;;;;;;;4.72;3.20;;;;;;;;;;6234631;28;20038;-81
2022/01/01 11:09:16;;;;;;;5.63;3.17;;;;;;;;;;6237156;28;20788;-80
2022/01/01 11:12:20;;;;;;;8.82;3.75;;;;;;;;;;6219887;28;20506;-80
2022/01/01 11:15:22;;;;;;;10.07;5.35;;;;;;;;;;6216247;28;20044;-80
2022/01/01 11:18:25;;;;;;;9.97;4.60;;;;;;;;;;6199524;28;20070;-80
2022/01/01 11:21:27;;;;;;;9.88;3.70;;;;;;;;;;6201499;28;20040;-79
2022/01/01 11:24:31;;;;;;;6.82;3.78;;;;;;;;;;6212524;28;20101;-79
2022/01/01 11:27:33;;;;;;;6.88;3.30;;;;;;;;;;6243690;28;20120;-78
2022/01/01 11:30:38;;;;;;;8.20;3.80;;;;;;;;;;6223143;28;20514;-80
2022/01/01 11:33:42;;;;;;;5.85;3.47;;;;;;;;;;6219891;28;20128;-82
2022/01/01 11:36:44;;;;;;;7.63;3.33;;;;;;;;;;6218164;28;20519;-83
2022/01/01 11:39:46;;;;;;;5.80;3.70;;;;;;;;;;6213821;28;20080;-83
2022/01/01 11:42:48;;;;;;;9.23;4.15;;;;;;;;;;6204069;28;20121;-82
2022/01/01 11:45:49;;;;;;;6.75;4.00;;;;;;;;;;6216881;28;20093;-82
2022/01/01 11:48:58;;;;;;;9.60;4.72;;;;;;;;;;6221998;28;20052;-83
2022/01/01 11:52:06;;;;;;;7.82;4.28;;;;;;;;;;6232934;28;20061;-82
2022/01/01 11:55:16;;;;;;;8.75;4.00;;;;;;;;;;6227776;28;20145;-82
2022/01/01 11:58:18;;;;;;;6.72;3.70;;;;;;;;;;6226294;28;20076;-81
2022/01/01 12:01:22;;;;;;;8.75;3.88;;;;;;;;;;6219461;28;20096;-81
2022/01/01 12:04:40;;;;;;;5.88;3.40;;;;;;;;;;6246272;28;20045;-82
2022/01/01 12:07:48;;;;;;;7.25;4.00;;;;;;;;;;6248596;28;20056;-82
2022/01/01 12:10:51;;;;;;;8.52;4.13;;;;;;;;;;6220737;28;20073;-82
2022/01/01 12:13:58;;;;;;;6.32;3.88;;;;;;;;;;6219927;28;20133;-81
2022/01/01 12:17:03;;;;;;;6.78;4.10;;;;;;;;;;6210800;28;20285;-82
2022/01/01 12:20:18;;;;;;;7.25;4.20;;;;;;;;;;6240439;28;20038;-81
2022/01/01 12:23:23;;;;;;;6.82;3.90;;;;;;;;;;6244166;28;20065;-82
2022/01/01 12:26:32;;;;;;;5.43;3.65;;;;;;;;;;6216177;28;20048;-82
2022/01/01 12:29:34;;;;;;;6.95;3.50;;;;;;;;;;6193856;28;20121;-83
2022/01/01 12:32:38;;;;;;;6.30;3.20;;;;;;;;;;6216420;28;20038;-82
2022/01/01 12:35:44;;;;;;;6.60;3.60;;;;;;;;;;6231121;28;20171;-82
2022/01/01 12:38:57;;;;;;;4.90;3.35;;;;;;;;;;6213146;28;20193;-82
2022/01/01 12:42:00;;;;;;;6.18;3.15;;;;;;;;;;6201193;28;20054;-83
2022/01/01 12:45:07;;;;;;;5.70;3.40;;;;;;;;;;6216827;28;20060;-81
2022/01/01 12:48:09;;;;;;;5.50;3.25;;;;;;;;;;6216029;28;20193;-81
2022/01/01 12:51:14;;;;;;;5.95;3.70;;;;;;;;;;6232779;28;20053;-81
2022/01/01 12:54:17;;;;;;;6.82;3.15;;;;;;;;;;6216734;28;20058;-82
2022/01/01 12:57:19;;;;;;;6.10;3.40;;;;;;;;;;6214580;28;20523;-82
2022/01/01 13:00:22;;;;;;;7.82;3.80;;;;;;;;;;6215833;28;20181;-82
2022/01/01 13:03:29;;;;;;;7.63;3.75;;;;;;;;;;6231592;28;20045;-82
2022/01/01 13:06:35;;;;;;;14.25;5.60;;;;;;;;;;6216526;28;20200;-83
2022/01/01 13:09:37;;;;;;;9.40;5.20;;;;;;;;;;6210963;28;20325;-83
2022/01/01 13:12:39;;;;;;;7.60;4.30;;;;;;;;;;6216864;28;20515;-82
2022/01/01 13:15:42;;;;;;;6.97;3.45;;;;;;;;;;6215776;28;20549;-83
2022/01/01 13:18:44;;;;;;;10.65;3.72;;;;;;;;;;6216377;28;20123;-83
2022/01/01 13:21:46;;;;;;;5.85;3.80;;;;;;;;;;6214779;28;20096;-82
2022/01/01 13:24:48;;;;;;;6.03;3.30;;;;;;;;;;6214840;28;20585;-82
2022/01/01 13:27:53;;;;;;;7.50;3.67;;;;;;;;;;6217032;28;20135;-82
2022/01/01 13:30:55;;;;;;;8.00;3.45;;;;;;;;;;6212162;28;20271;-83
2022/01/01 13:33:58;;;;;;;6.20;3.37;;;;;;;;;;6214526;28;20126;-82
2022/01/01 13:37:05;;;;;;;4.95;3.60;;;;;;;;;;6214753;28;20068;-83
2022/01/01 13:40:07;;;;;;;8.40;4.18;;;;;;;;;;6212009;28;20054;-82
2022/01/01 13:43:10;;;;;;;7.65;3.20;;;;;;;;;;6216237;28;20045;-83
2022/01/01 13:46:32;;;;;;;6.88;3.33;;;;;;;;;;6219626;28;20058;-83
2022/01/01 13:49:50;;;;;;;6.63;3.80;;;;;;;;;;6218131;28;20052;-81
2022/01/01 13:52:57;;;;;;;5.13;3.33;;;;;;;;;;6219554;28;20406;-84
2022/01/01 13:56:04;;;;;;;12.52;6.25;;;;;;;;;;6219586;28;20495;-82
2022/01/01 13:59:06;;;;;;;5.22;3.30;;;;;;;;;;6220046;28;20102;-82
2022/01/01 14:02:13;;;;;;;5.47;3.50;;;;;;;;;;6217669;28;20394;-83
2022/01/01 14:05:16;;;;;;;8.95;5.25;;;;;;;;;;6221854;28;20077;-82
2022/01/01 14:08:18;;;;;;;11.97;9.23;;;;;;;;;;6221905;28;20117;-82
2022/01/01 14:11:20;;;;;;;8.15;5.30;;;;;;;;;;6213319;28;20511;-83
2022/01/01 14:14:29;;;;;;;5.35;3.55;;;;;;;;;;6225207;28;20117;-83
2022/01/01 14:17:54;;;;;;;8.65;3.83;;;;;;;;;;6226771;28;20763;-83
2022/01/01 14:20:58;;;;;;;6.60;3.45;;;;;;;;;;6211007;28;20073;-83
2022/01/01 14:24:04;;;;;;;6.43;3.40;;;;;;;;;;6207418;28;20102;-83
2022/01/01 14:27:06;;;;;;;5.82;3.60;;;;;;;;;;6209746;28;20120;-83
2022/01/01 14:30:08;;;;;;;8.65;4.70;;;;;;;;;;6215927;28;20123;-84
2022/01/01 14:33:10;;;;;;;7.18;4.28;;;;;;;;;;6220922;28;20141;-84
2022/01/01 14:36:13;;;;;;;4.93;3.25;;;;;;;;;;6221155;28;20161;-83
2022/01/01 14:39:17;;;;;;;5.88;3.10;;;;;;;;;;6214128;28;20054;-83
2022/01/01 14:42:19;;;;;;;8.32;4.40;;;;;;;;;;6215493;28;20060;-84
2022/01/01 14:45:20;;;;;;;7.13;4.05;;;;;;;;;;6232036;28;20129;-83
2022/01/01 14:48:25;;;;;;;7.15;4.00;;;;;;;;;;6238083;28;20046;-83
2022/01/01 14:51:51;;;;;;;5.10;2.97;;;;;;;;;;6223866;28;20114;-81
2022/01/01 14:55:04;;;;;;;7.43;4.88;;;;;;;;;;6221766;28;20037;-80
2022/01/01 14:58:12;;;;;;;5.28;3.63;;;;;;;;;;6224584;28;20130;-82
2022/01/01 15:01:13;;;;;;;7.10;3.58;;;;;;;;;;6207198;28;20050;-83
2022/01/01 15:04:18;;;;;;;7.65;4.90;;;;;;;;;;6223319;28;20129;-84
2022/01/01 15:07:21;;;;;;;8.13;4.10;;;;;;;;;;6224938;28;20053;-83
2022/01/01 15:10:27;;;;;;;8.30;4.38;;;;;;;;;;6223596;28;20791;-83
2022/01/01 15:13:30;;;;;;;5.82;3.22;;;;;;;;;;6214654;28;20081;-83
2022/01/01 15:16:32;;;;;;;6.90;3.78;;;;;;;;;;6214244;28;20606;-80
2022/01/01 15:19:34;;;;;;;4.57;3.30;;;;;;;;;;6222902;28;20058;-82
2022/01/01 15:22:55;;;;;;;6.78;3.80;;;;;;;;;;6222746;28;20145;-79
2022/01/01 15:25:59;;;;;;;6.88;4.65;;;;;;;;;;6217441;28;20594;-80
2022/01/01 15:29:11;;;;;;;6.57;3.65;;;;;;;;;;6223643;28;20053;-81
2022/01/01 15:39:00;;;;;;;7.88;4.80;;;;;;;;;;6221526;28;20101;-81
2022/01/01 15:42:25;;;;;;;7.00;4.57;;;;;;;;;;6222735;28;20073;-80
2022/01/01 15:45:27;;;;;;;14.00;9.75;;;;;;;;;;6220125;28;20050;-80
2022/01/01 15:48:29;;;;;;;8.20;5.75;;;;;;;;;;6223060;28;20037;-80
2022/01/01 15:51:32;;;;;;;7.43;4.30;;;;;;;;;;6221379;28;20135;-80
2022/01/01 15:54:34;;;;;;;7.00;4.57;;;;;;;;;;6203912;28;20041;-81
2022/01/01 15:57:53;;;;;;;8.70;5.68;;;;;;;;;;6222728;28;20136;-82
2022/01/01 16:01:02;;;;;;;12.30;7.80;;;;;;;;;;6222486;28;20049;-82
2022/01/01 16:04:25;;;;;;;9.45;6.18;;;;;;;;;;6223284;28;20041;-79
2022/01/01 16:07:28;;;;;;;5.32;3.55;;;;;;;;;;6226427;28;20065;-79
2022/01/01 16:10:30;;;;;;;5.10;3.28;;;;;;;;;;6215635;28;20772;-80
2022/01/01 16:13:43;;;;;;;5.22;3.33;;;;;;;;;;6226356;28;20687;-81
2022/01/01 16:16:47;;;;;;;5.60;3.22;;;;;;;;;;6221345;28;20462;-81
2022/01/01 16:19:52;;;;;;;5.05;3.45;;;;;;;;;;6223564;28;20104;-82
2022/01/01 16:22:54;;;;;;;7.03;4.00;;;;;;;;;;6206918;28;20054;-82
2022/01/01 16:25:56;;;;;;;7.78;3.88;;;;;;;;;;6219441;28;20100;-82
2022/01/01 16:29:00;;;;;;;3.63;2.90;;;;;;;;;;6222818;28;20096;-80
2022/01/01 16:32:02;;;;;;;6.45;3.30;;;;;;;;;;6202575;28;20042;-81
2022/01/01 16:35:05;;;;;;;6.38;3.90;;;;;;;;;;6200711;28;20441;-81
2022/01/01 16:38:08;;;;;;;8.80;4.95;;;;;;;;;;6199201;28;20133;-82
2022/01/01 16:41:12;;;;;;;41.40;27.00;;;;;;;;;;6217872;28;20058;-80
2022/01/01 16:44:29;;;;;;;11.13;7.30;;;;;;;;;;6221696;28;20046;-81
2022/01/01 16:47:45;;;;;;;16.20;9.38;;;;;;;;;;6203641;28;20042;-82
2022/01/01 16:50:54;;;;;;;10.05;6.43;;;;;;;;;;6221291;28;20041;-80
2022/01/01 16:53:58;;;;;;;11.05;7.20;;;;;;;;;;6221137;28;20049;-82
2022/01/01 16:57:05;;;;;;;11.52;7.07;;;;;;;;;;6231064;28;20114;-82
2022/01/01 17:00:10;;;;;;;9.80;6.97;;;;;;;;;;6211174;28;20442;-81
2022/01/01 17:03:31;;;;;;;11.10;6.65;;;;;;;;;;6222330;28;20104;-82
2022/01/01 17:06:36;;;;;;;9.75;6.90;;;;;;;;;;6216258;28;20105;-80
2022/01/01 17:09:40;;;;;;;8.98;5.90;;;;;;;;;;6233628;28;20042;-80
2022/01/01 17:12:43;;;;;;;10.52;6.30;;;;;;;;;;6182012;28;20544;-81
2022/01/01 17:16:02;;;;;;;9.20;5.53;;;;;;;;;;6207236;28;20126;-82
2022/01/01 17:19:41;;;;;;;8.20;5.55;;;;;;;;;;6222778;28;20068;-82
2022/01/01 17:22:55;;;;;;;9.63;6.68;;;;;;;;;;6212616;28;20182;-82
2022/01/01 17:26:04;;;;;;;20.17;10.10;;;;;;;;;;6195774;28;20078;-81
2022/01/01 17:29:06;;;;;;;14.95;7.95;;;;;;;;;;6197439;28;20038;-81
2022/01/01 17:32:08;;;;;;;12.20;8.02;;;;;;;;;;6189315;28;20081;-81
2022/01/01 17:41:57;;;;;;;12.50;7.25;;;;;;;;;;6199635;28;20181;-81
2022/01/01 17:45:00;;;;;;;11.25;7.63;;;;;;;;;;6213742;28;20046;-79
2022/01/01 17:48:02;;;;;;;7.88;5.30;;;;;;;;;;6215594;28;20388;-81
2022/01/01 17:51:09;;;;;;;32.43;14.73;;;;;;;;;;6218284;28;20080;-82
2022/01/01 17:54:15;;;;;;;19.05;11.70;;;;;;;;;;6192506;28;20132;-82
2022/01/01 17:57:17;;;;;;;16.70;12.40;;;;;;;;;;6184408;28;21091;-82
2022/01/01 18:00:19;;;;;;;13.57;7.63;;;;;;;;;;6180835;28;20133;-83
2022/01/01 18:03:20;;;;;;;7.88;4.95;;;;;;;;;;6213633;28;20451;-83
2022/01/01 18:06:27;;;;;;;5.65;4.22;;;;;;;;;;6233979;28;20435;-80
2022/01/01 18:09:37;;;;;;;5.60;4.47;;;;;;;;;;6222643;28;20126;-80
2022/01/01 18:12:57;;;;;;;12.65;6.70;;;;;;;;;;6204844;28;20455;-83
2022/01/01 18:15:59;;;;;;;10.05;5.93;;;;;;;;;;6196320;28;20069;-81
2022/01/01 18:19:01;;;;;;;11.27;6.75;;;;;;;;;;6216527;28;20507;-80
2022/01/01 18:22:04;;;;;;;7.57;3.47;;;;;;;;;;6219159;28;20061;-81
2022/01/01 18:25:13;;;;;;;5.13;3.10;;;;;;;;;;6214723;28;20101;-82
2022/01/01 18:28:28;;;;;;;9.95;6.72;;;;;;;;;;6229372;28;20495;-82
2022/01/01 18:31:33;;;;;;;11.77;6.00;;;;;;;;;;6228216;28;20037;-81
2022/01/01 18:34:42;;;;;;;12.25;7.03;;;;;;;;;;6223890;28;20495;-82
2022/01/01 18:37:45;;;;;;;12.68;9.10;;;;;;;;;;6244401;28;20061;-79